sensor_id;sensor_type;location;lat;lon;timestamp;pressure;altitude;pressure_sealevel;temperature;humidity
18784;BME280;9520;50.954;6.968;2023-01-27T00:00:12;101640.75;;;11.08;52.40
18784;BME280;9520;50.954;6.968;2023-01-27T00:00:37;101590.66;;;10.73;52.32
18784;BME280;9520;50.954;6.968;2023-01-27T00:01:02;101637.25;;;11.09;52.50
18784;BME280;9520;50.954;6.968;2023-01-27T00:01:24;101576.59;;;10.70;52.52
18784;BME280;9520;50.954;6.968;2023-01-27T00:01:49;101605.59;;;10.93;52.51
18784;BME280;9520;50.954;6.968;2023-01-27T00:02:11;101623.16;;;11.01;52.51
18784;BME280;9520;50.954;6.968;2023-01-27T00:02:34;101613.50;;;10.91;52.60
18784;BME280;9520;50.954;6.968;2023-01-27T00:02:58;101594.19;;;10.74;52.42
18784;BME280;9520;50.954;6.968;2023-01-27T00:03:22;101639.00;;;11.09;52.39
18784;BME280;9520;50.954;6.968;2023-01-27T00:03:44;101553.72;;;10.57;52.49
18784;BME280;9520;50.954;6.968;2023-01-27T00:04:07;101578.34;;;10.71;52.61
18784;BME280;9520;50.954;6.968;2023-01-27T00:04:30;101523.84;;;10.32;52.02
18784;BME280;9520;50.954;6.968;2023-01-27T00:04:52;101639.00;;;11.09;52.44
18784;BME280;9520;50.954;6.968;2023-01-27T00:05:15;101637.22;;;11.12;52.47
18784;BME280;9520;50.954;6.968;2023-01-27T00:05:37;101634.59;;;11.14;52.27
18784;BME280;9520;50.954;6.968;2023-01-27T00:06:01;101635.47;;;11.13;52.37
18784;BME280;9520;50.954;6.968;2023-01-27T00:06:25;101632.81;;;11.16;52.27
18784;BME280;9520;50.954;6.968;2023-01-27T00:06:47;101642.53;;;11.09;52.28
18784;BME280;9520;50.954;6.968;2023-01-27T00:07:10;101515.09;;;10.34;52.11
18784;BME280;9520;50.954;6.968;2023-01-27T00:07:32;101642.50;;;11.12;52.24
18784;BME280;9520;50.954;6.968;2023-01-27T00:07:55;101577.44;;;10.81;52.16
18784;BME280;9520;50.954;6.968;2023-01-27T00:08:19;101588.00;;;10.87;52.12
18784;BME280;9520;50.954;6.968;2023-01-27T00:08:43;101641.63;;;11.12;51.94
18784;BME280;9520;50.954;6.968;2023-01-27T00:09:05;101578.34;;;10.85;51.92
18784;BME280;9520;50.954;6.968;2023-01-27T00:09:27;101624.91;;;11.07;51.92
18784;BME280;9520;50.954;6.968;2023-01-27T00:09:52;101623.16;;;11.07;51.91
18784;BME280;9520;50.954;6.968;2023-01-27T00:10:18;101616.13;;;11.02;51.88
18784;BME280;9520;50.954;6.968;2023-01-27T00:10:40;101601.19;;;10.92;51.84
18784;BME280;9520;50.954;6.968;2023-01-27T00:11:02;101527.34;;;10.46;51.84
18784;BME280;9520;50.954;6.968;2023-01-27T00:11:43;101630.19;;;11.11;51.84
18784;BME280;9520;50.954;6.968;2023-01-27T00:12:24;101630.19;;;11.11;51.83
18784;BME280;9520;50.954;6.968;2023-01-27T00:13:05;101639.00;;;11.09;51.99
18784;BME280;9520;50.954;6.968;2023-01-27T00:13:46;101508.06;;;10.29;51.96
18784;BME280;9520;50.954;6.968;2023-01-27T00:14:11;101634.63;;;10.88;51.99
18784;BME280;9520;50.954;6.968;2023-01-27T00:14:34;101639.88;;;10.91;51.91
18784;BME280;9520;50.954;6.968;2023-01-27T00:14:56;101624.06;;;10.87;52.08
18784;BME280;9520;50.954;6.968;2023-01-27T00:15:18;101641.66;;;10.95;52.04
18784;BME280;9520;50.954;6.968;2023-01-27T00:15:41;101635.50;;;10.93;51.97
18784;BME280;9520;50.954;6.968;2023-01-27T00:16:05;101616.16;;;10.83;51.85
18784;BME280;9520;50.954;6.968;2023-01-27T00:16:27;101527.38;;;10.26;51.79
18784;BME280;9520;50.954;6.968;2023-01-27T00:16:51;101546.72;;;10.44;51.90
18784;BME280;9520;50.954;6.968;2023-01-27T00:17:13;101630.22;;;10.93;51.58
18784;BME280;9520;50.954;6.968;2023-01-27T00:17:36;101548.47;;;10.45;51.64
18784;BME280;9520;50.954;6.968;2023-01-27T00:17:59;101597.69;;;10.79;51.64
18784;BME280;9520;50.954;6.968;2023-01-27T00:18:22;101530.91;;;10.25;51.80
18784;BME280;9520;50.954;6.968;2023-01-27T00:18:44;101519.47;;;10.26;51.91
18784;BME280;9520;50.954;6.968;2023-01-27T00:19:06;101639.03;;;10.89;52.01
18784;BME280;9520;50.954;6.968;2023-01-27T00:19:28;101645.16;;;10.96;51.99
18784;BME280;9520;50.954;6.968;2023-01-27T00:19:51;101541.44;;;10.31;51.88
18784;BME280;9520;50.954;6.968;2023-01-27T00:20:13;101637.25;;;10.93;51.93
18784;BME280;9520;50.954;6.968;2023-01-27T00:20:55;101523.88;;;10.29;51.71
18784;BME280;9520;50.954;6.968;2023-01-27T00:21:35;101640.75;;;11.04;51.80
18784;BME280;9520;50.954;6.968;2023-01-27T00:22:24;101539.69;;;10.39;51.56
18784;BME280;9520;50.954;6.968;2023-01-27T00:23:04;101634.63;;;10.99;51.70
18784;BME280;9520;50.954;6.968;2023-01-27T00:23:44;101639.88;;;11.06;51.68
18784;BME280;9520;50.954;6.968;2023-01-27T00:24:25;101645.16;;;11.08;51.49
18784;BME280;9520;50.954;6.968;2023-01-27T00:25:00;101653.06;;;11.06;51.55
18784;BME280;9520;50.954;6.968;2023-01-27T00:25:23;101593.28;;;10.81;51.48
18784;BME280;9520;50.954;6.968;2023-01-27T00:25:45;101621.41;;;10.97;51.47
18784;BME280;9520;50.954;6.968;2023-01-27T00:26:12;101638.09;;;11.01;51.84
18784;BME280;9520;50.954;6.968;2023-01-27T00:26:37;101637.22;;;11.06;51.79
18784;BME280;9520;50.954;6.968;2023-01-27T00:26:59;101559.03;;;10.55;51.70
18784;BME280;9520;50.954;6.968;2023-01-27T00:27:21;101588.03;;;10.75;51.75
18784;BME280;9520;50.954;6.968;2023-01-27T00:27:43;101593.28;;;10.72;51.66
18784;BME280;9520;50.954;6.968;2023-01-27T00:28:04;101495.75;;;10.22;51.49
18784;BME280;9520;50.954;6.968;2023-01-27T00:28:28;101635.47;;;11.02;51.68
18784;BME280;9520;50.954;6.968;2023-01-27T00:28:51;101637.25;;;11.05;51.61
18784;BME280;9520;50.954;6.968;2023-01-27T00:29:13;101551.13;;;10.55;51.81
18784;BME280;9520;50.954;6.968;2023-01-27T00:29:37;101629.31;;;11.00;51.75
18784;BME280;9520;50.954;6.968;2023-01-27T00:29:59;101585.38;;;10.79;51.65
18784;BME280;9520;50.954;6.968;2023-01-27T00:30:21;101644.25;;;11.12;51.49
18784;BME280;9520;50.954;6.968;2023-01-27T00:30:43;101638.09;;;11.11;51.33
18784;BME280;9520;50.954;6.968;2023-01-27T00:31:10;101600.34;;;10.85;51.40
18784;BME280;9520;50.954;6.968;2023-01-27T00:31:50;101642.53;;;11.03;51.23
18784;BME280;9520;50.954;6.968;2023-01-27T00:32:31;101645.16;;;11.03;51.44
18784;BME280;9520;50.954;6.968;2023-01-27T00:33:12;101645.16;;;11.05;51.42
18784;BME280;9520;50.954;6.968;2023-01-27T00:33:47;101644.28;;;11.09;51.42
18784;BME280;9520;50.954;6.968;2023-01-27T00:34:10;101645.16;;;11.08;51.27
18784;BME280;9520;50.954;6.968;2023-01-27T00:34:32;101641.63;;;11.07;51.40
18784;BME280;9520;50.954;6.968;2023-01-27T00:34:56;101647.81;;;11.09;51.24
18784;BME280;9520;50.954;6.968;2023-01-27T00:35:19;101638.13;;;11.04;51.19
18784;BME280;9520;50.954;6.968;2023-01-27T00:35:43;101641.66;;;11.04;51.48
18784;BME280;9520;50.954;6.968;2023-01-27T00:36:06;101650.44;;;11.03;51.23
18784;BME280;9520;50.954;6.968;2023-01-27T00:36:28;101646.03;;;11.05;51.27
18784;BME280;9520;50.954;6.968;2023-01-27T00:36:51;101643.38;;;11.07;51.29
18784;BME280;9520;50.954;6.968;2023-01-27T00:37:17;101639.88;;;11.06;51.21
18784;BME280;9520;50.954;6.968;2023-01-27T00:37:39;101657.47;;;11.10;51.28
18784;BME280;9520;50.954;6.968;2023-01-27T00:38:01;101623.16;;;10.98;51.39
18784;BME280;9520;50.954;6.968;2023-01-27T00:38:27;101538.81;;;10.37;51.20
18784;BME280;9520;50.954;6.968;2023-01-27T00:38:51;101559.00;;;10.58;51.07
18784;BME280;9520;50.954;6.968;2023-01-27T00:39:13;101632.88;;;10.90;51.18
18784;BME280;9520;50.954;6.968;2023-01-27T00:39:37;101635.47;;;11.02;51.14
18784;BME280;9520;50.954;6.968;2023-01-27T00:39:59;101648.66;;;11.11;51.06
18784;BME280;9520;50.954;6.968;2023-01-27T00:40:22;101648.66;;;11.07;51.14
18784;BME280;9520;50.954;6.968;2023-01-27T00:40:44;101602.09;;;10.74;51.06
18784;BME280;9520;50.954;6.968;2023-01-27T00:41:26;101556.38;;;10.38;51.12
18784;BME280;9520;50.954;6.968;2023-01-27T00:41:49;101645.16;;;11.05;51.15
18784;BME280;9520;50.954;6.968;2023-01-27T00:42:11;101647.78;;;11.08;51.10
18784;BME280;9520;50.954;6.968;2023-01-27T00:42:34;101653.09;;;11.09;51.01
18784;BME280;9520;50.954;6.968;2023-01-27T00:42:56;101591.53;;;10.74;51.11
18784;BME280;9520;50.954;6.968;2023-01-27T00:43:21;101652.19;;;11.09;51.10
18784;BME280;9520;50.954;6.968;2023-01-27T00:43:43;101651.31;;;11.14;51.14
18784;BME280;9520;50.954;6.968;2023-01-27T00:44:06;101645.16;;;11.08;51.14
18784;BME280;9520;50.954;6.968;2023-01-27T00:44:33;101653.97;;;11.02;51.30
18784;BME280;9520;50.954;6.968;2023-01-27T00:44:57;101646.03;;;10.96;51.19
18784;BME280;9520;50.954;6.968;2023-01-27T00:45:37;101639.00;;;10.97;51.08
18784;BME280;9520;50.954;6.968;2023-01-27T00:46:14;101653.97;;;11.04;51.01
18784;BME280;9520;50.954;6.968;2023-01-27T00:46:36;101643.41;;;11.02;51.04
18784;BME280;9520;50.954;6.968;2023-01-27T00:47:02;101547.59;;;10.36;51.16
18784;BME280;9520;50.954;6.968;2023-01-27T00:47:25;101608.22;;;10.82;51.02
18784;BME280;9520;50.954;6.968;2023-01-27T00:47:46;101573.09;;;10.65;51.00
18784;BME280;9520;50.954;6.968;2023-01-27T00:48:09;101587.13;;;10.67;51.08
18784;BME280;9520;50.954;6.968;2023-01-27T00:48:31;101652.19;;;11.03;51.05
18784;BME280;9520;50.954;6.968;2023-01-27T00:48:54;101651.34;;;10.99;51.14
18784;BME280;9520;50.954;6.968;2023-01-27T00:49:16;101641.63;;;11.03;51.11
18784;BME280;9520;50.954;6.968;2023-01-27T00:49:38;101653.06;;;11.06;51.15
18784;BME280;9520;50.954;6.968;2023-01-27T00:50:00;101631.13;;;10.85;51.40
18784;BME280;9520;50.954;6.968;2023-01-27T00:50:26;101572.22;;;10.51;51.34
18784;BME280;9520;50.954;6.968;2023-01-27T00:50:48;101644.28;;;11.01;51.29
18784;BME280;9520;50.954;6.968;2023-01-27T00:51:11;101638.13;;;10.96;51.14
18784;BME280;9520;50.954;6.968;2023-01-27T00:51:34;101658.34;;;11.08;51.17
18784;BME280;9520;50.954;6.968;2023-01-27T00:51:57;101654.84;;;11.03;51.10
18784;BME280;9520;50.954;6.968;2023-01-27T00:52:20;101653.09;;;11.03;51.24
18784;BME280;9520;50.954;6.968;2023-01-27T00:52:41;101649.56;;;10.94;51.21
18784;BME280;9520;50.954;6.968;2023-01-27T00:53:05;101627.56;;;10.87;51.39
18784;BME280;9520;50.954;6.968;2023-01-27T00:53:29;101643.41;;;11.02;51.33
18784;BME280;9520;50.954;6.968;2023-01-27T00:53:51;101652.19;;;11.06;51.16
18784;BME280;9520;50.954;6.968;2023-01-27T00:54:13;101649.53;;;11.06;51.17
18784;BME280;9520;50.954;6.968;2023-01-27T00:54:35;101652.19;;;11.07;51.25
18784;BME280;9520;50.954;6.968;2023-01-27T00:54:59;101646.03;;;10.96;51.29
18784;BME280;9520;50.954;6.968;2023-01-27T00:55:22;101644.28;;;11.04;51.41
18784;BME280;9520;50.954;6.968;2023-01-27T00:55:44;101631.97;;;10.93;51.33
18784;BME280;9520;50.954;6.968;2023-01-27T00:56:13;101646.91;;;11.07;51.28
18784;BME280;9520;50.954;6.968;2023-01-27T00:56:36;101623.19;;;10.95;51.17
18784;BME280;9520;50.954;6.968;2023-01-27T00:57:01;101580.09;;;10.61;51.07
18784;BME280;9520;50.954;6.968;2023-01-27T00:57:28;101653.94;;;11.16;51.10
18784;BME280;9520;50.954;6.968;2023-01-27T00:57:50;101653.06;;;11.17;51.03
18784;BME280;9520;50.954;6.968;2023-01-27T00:58:13;101660.97;;;11.21;51.10
18784;BME280;9520;50.954;6.968;2023-01-27T00:58:36;101659.22;;;11.22;51.00
18784;BME280;9520;50.954;6.968;2023-01-27T00:58:59;101574.84;;;10.75;50.97
18784;BME280;9520;50.954;6.968;2023-01-27T00:59:22;101522.97;;;10.44;50.84
18784;BME280;9520;50.954;6.968;2023-01-27T00:59:43;101653.06;;;11.23;51.10
18784;BME280;9520;50.954;6.968;2023-01-27T01:00:08;101513.31;;;10.39;51.09
18784;BME280;9520;50.954;6.968;2023-01-27T01:00:31;101555.50;;;10.52;51.13
18784;BME280;9520;50.954;6.968;2023-01-27T01:00:53;101516.81;;;10.32;51.09
18784;BME280;9520;50.954;6.968;2023-01-27T01:01:19;101653.03;;;11.15;51.24
18784;BME280;9520;50.954;6.968;2023-01-27T01:01:46;101603.81;;;10.87;51.08
18784;BME280;9520;50.954;6.968;2023-01-27T01:02:11;101654.81;;;11.16;51.18
18784;BME280;9520;50.954;6.968;2023-01-27T01:02:38;101649.53;;;11.12;51.27
18784;BME280;9520;50.954;6.968;2023-01-27T01:03:01;101524.75;;;10.34;51.30
18784;BME280;9520;50.954;6.968;2023-01-27T01:03:25;101508.94;;;10.28;51.25
18784;BME280;9520;50.954;6.968;2023-01-27T01:03:49;101656.59;;;11.14;51.30
18784;BME280;9520;50.954;6.968;2023-01-27T01:04:11;101652.19;;;11.10;51.16
18784;BME280;9520;50.954;6.968;2023-01-27T01:04:35;101559.91;;;10.50;51.27
18784;BME280;9520;50.954;6.968;2023-01-27T01:04:59;101572.22;;;10.60;51.10
18784;BME280;9520;50.954;6.968;2023-01-27T01:05:23;101603.84;;;10.79;51.23
18784;BME280;9520;50.954;6.968;2023-01-27T01:05:49;101579.22;;;10.61;51.13
18784;BME280;9520;50.954;6.968;2023-01-27T01:06:16;101649.56;;;11.04;51.15
18784;BME280;9520;50.954;6.968;2023-01-27T01:06:38;101653.97;;;11.08;51.31
18784;BME280;9520;50.954;6.968;2023-01-27T01:07:00;101655.72;;;11.03;51.34
18784;BME280;9520;50.954;6.968;2023-01-27T01:07:22;101628.44;;;10.91;51.39
18784;BME280;9520;50.954;6.968;2023-01-27T01:07:44;101603.84;;;10.75;51.33
18784;BME280;9520;50.954;6.968;2023-01-27T01:08:07;101650.44;;;11.06;51.43
18784;BME280;9520;50.954;6.968;2023-01-27T01:08:30;101660.13;;;11.07;51.48
18784;BME280;9520;50.954;6.968;2023-01-27T01:08:52;101658.38;;;11.03;51.41
18784;BME280;9520;50.954;6.968;2023-01-27T01:09:17;101662.75;;;11.06;51.33
18784;BME280;9520;50.954;6.968;2023-01-27T01:09:41;101646.06;;;10.99;51.68
18784;BME280;9520;50.954;6.968;2023-01-27T01:10:04;101661.88;;;11.04;51.52
18784;BME280;9520;50.954;6.968;2023-01-27T01:10:26;101638.13;;;10.86;51.62
18784;BME280;9520;50.954;6.968;2023-01-27T01:10:48;101665.41;;;11.04;51.45
18784;BME280;9520;50.954;6.968;2023-01-27T01:11:13;101660.13;;;11.04;51.41
18784;BME280;9520;50.954;6.968;2023-01-27T01:11:36;101656.59;;;11.01;51.34
18784;BME280;9520;50.954;6.968;2023-01-27T01:11:58;101639.91;;;10.93;51.30
18784;BME280;9520;50.954;6.968;2023-01-27T01:12:20;101669.78;;;11.08;51.34
18784;BME280;9520;50.954;6.968;2023-01-27T01:12:44;101666.25;;;11.12;51.30
18784;BME280;9520;50.954;6.968;2023-01-27T01:13:06;101673.31;;;11.13;51.20
18784;BME280;9520;50.954;6.968;2023-01-27T01:13:28;101675.06;;;11.13;51.25
18784;BME280;9520;50.954;6.968;2023-01-27T01:13:50;101663.63;;;11.11;51.33
18784;BME280;9520;50.954;6.968;2023-01-27T01:14:16;101665.41;;;11.07;51.37
18784;BME280;9520;50.954;6.968;2023-01-27T01:14:38;101537.94;;;10.34;51.34
18784;BME280;9520;50.954;6.968;2023-01-27T01:15:00;101587.13;;;10.56;51.38
18784;BME280;9520;50.954;6.968;2023-01-27T01:15:22;101669.78;;;11.14;51.21
18784;BME280;9520;50.954;6.968;2023-01-27T01:15:48;101659.22;;;11.05;51.07
18784;BME280;9520;50.954;6.968;2023-01-27T01:16:14;101659.25;;;11.10;51.11
18784;BME280;9520;50.954;6.968;2023-01-27T01:16:38;101667.13;;;11.11;51.07
18784;BME280;9520;50.954;6.968;2023-01-27T01:17:00;101662.75;;;11.06;51.01
18784;BME280;9520;50.954;6.968;2023-01-27T01:17:22;101670.69;;;11.04;51.22
18784;BME280;9520;50.954;6.968;2023-01-27T01:17:43;101644.28;;;10.91;51.10
18784;BME280;9520;50.954;6.968;2023-01-27T01:18:08;101661.00;;;11.05;51.19
18784;BME280;9520;50.954;6.968;2023-01-27T01:18:30;101673.28;;;11.10;51.07
18784;BME280;9520;50.954;6.968;2023-01-27T01:18:52;101669.78;;;11.13;51.07
18784;BME280;9520;50.954;6.968;2023-01-27T01:19:14;101647.78;;;11.00;50.94
18784;BME280;9520;50.954;6.968;2023-01-27T01:19:37;101557.28;;;10.50;51.04
18784;BME280;9520;50.954;6.968;2023-01-27T01:19:59;101673.31;;;11.15;50.89
18784;BME280;9520;50.954;6.968;2023-01-27T01:20:21;101666.25;;;11.11;50.96
18784;BME280;9520;50.954;6.968;2023-01-27T01:20:45;101672.44;;;11.14;50.75
18784;BME280;9520;50.954;6.968;2023-01-27T01:21:08;101664.50;;;11.07;51.00
18784;BME280;9520;50.954;6.968;2023-01-27T01:21:41;101673.31;;;11.09;51.25
18784;BME280;9520;50.954;6.968;2023-01-27T01:22:05;101634.63;;;10.87;50.95
18784;BME280;9520;50.954;6.968;2023-01-27T01:22:36;101668.91;;;11.11;51.14
18784;BME280;9520;50.954;6.968;2023-01-27T01:22:59;101669.78;;;11.11;51.03
18784;BME280;9520;50.954;6.968;2023-01-27T01:23:22;101620.53;;;10.81;51.13
18784;BME280;9520;50.954;6.968;2023-01-27T01:23:45;101520.31;;;10.12;51.01
18784;BME280;9520;50.954;6.968;2023-01-27T01:24:08;101563.41;;;10.36;51.08
18784;BME280;9520;50.954;6.968;2023-01-27T01:24:32;101566.06;;;10.44;50.87
18784;BME280;9520;50.954;6.968;2023-01-27T01:24:56;101681.25;;;11.15;50.84
18784;BME280;9520;50.954;6.968;2023-01-27T01:25:20;101660.16;;;10.95;50.89
18784;BME280;9520;50.954;6.968;2023-01-27T01:25:51;101673.28;;;11.16;50.89
18784;BME280;9520;50.954;6.968;2023-01-27T01:26:14;101623.16;;;10.86;50.91
18784;BME280;9520;50.954;6.968;2023-01-27T01:26:37;101550.22;;;10.38;51.03
18784;BME280;9520;50.954;6.968;2023-01-27T01:27:03;101628.47;;;10.80;50.77
18784;BME280;9520;50.954;6.968;2023-01-27T01:27:26;101610.88;;;10.68;50.89
18784;BME280;9520;50.954;6.968;2023-01-27T01:27:50;101619.69;;;10.72;51.16
18784;BME280;9520;50.954;6.968;2023-01-27T01:28:15;101642.53;;;10.88;51.21
18784;BME280;9520;50.954;6.968;2023-01-27T01:28:38;101611.75;;;10.67;51.06
18784;BME280;9520;50.954;6.968;2023-01-27T01:29:04;101600.34;;;10.49;50.93
18784;BME280;9520;50.954;6.968;2023-01-27T01:29:27;101625.81;;;10.77;50.86
18784;BME280;9520;50.954;6.968;2023-01-27T01:29:50;101669.78;;;11.01;50.70
18784;BME280;9520;50.954;6.968;2023-01-27T01:30:16;101589.78;;;10.49;50.77
18784;BME280;9520;50.954;6.968;2023-01-27T01:30:42;101677.72;;;11.08;50.46
18784;BME280;9520;50.954;6.968;2023-01-27T01:31:07;101594.16;;;10.51;50.39
18784;BME280;9520;50.954;6.968;2023-01-27T01:31:29;101683.00;;;11.14;50.36
18784;BME280;9520;50.954;6.968;2023-01-27T01:31:54;101634.63;;;10.88;50.21
18784;BME280;9520;50.954;6.968;2023-01-27T01:32:19;101581.88;;;10.59;50.17
18784;BME280;9520;50.954;6.968;2023-01-27T01:32:43;101567.78;;;10.51;50.11
18784;BME280;9520;50.954;6.968;2023-01-27T01:33:07;101546.72;;;10.42;50.13
18784;BME280;9520;50.954;6.968;2023-01-27T01:33:29;101530.03;;;10.31;50.34
18784;BME280;9520;50.954;6.968;2023-01-27T01:33:52;101625.84;;;10.72;50.39
18784;BME280;9520;50.954;6.968;2023-01-27T01:34:18;101539.69;;;10.18;50.23
18784;BME280;9520;50.954;6.968;2023-01-27T01:34:40;101535.31;;;10.16;50.42
18784;BME280;9520;50.954;6.968;2023-01-27T01:35:07;101620.56;;;10.57;50.27
18784;BME280;9520;50.954;6.968;2023-01-27T01:35:29;101653.13;;;10.70;50.34
18784;BME280;9520;50.954;6.968;2023-01-27T01:35:55;101624.06;;;10.47;50.37
18784;BME280;9520;50.954;6.968;2023-01-27T01:36:19;101656.63;;;10.49;50.50
18784;BME280;9520;50.954;6.968;2023-01-27T01:36:42;101683.00;;;10.76;50.45
18784;BME280;9520;50.954;6.968;2023-01-27T01:37:07;101632.00;;;10.49;50.43
18784;BME280;9520;50.954;6.968;2023-01-27T01:37:30;101683.00;;;10.81;50.54
18784;BME280;9520;50.954;6.968;2023-01-27T01:37:53;101685.66;;;10.82;50.51
18784;BME280;9520;50.954;6.968;2023-01-27T01:38:18;101690.06;;;10.85;50.44
18784;BME280;9520;50.954;6.968;2023-01-27T01:38:42;101628.47;;;10.54;50.14
18784;BME280;9520;50.954;6.968;2023-01-27T01:39:05;101661.91;;;10.75;50.09
18784;BME280;9520;50.954;6.968;2023-01-27T01:39:28;101680.38;;;10.93;50.04
18784;BME280;9520;50.954;6.968;2023-01-27T01:39:53;101667.19;;;10.78;49.88
18784;BME280;9520;50.954;6.968;2023-01-27T01:40:20;101658.38;;;10.73;49.87
18784;BME280;9520;50.954;6.968;2023-01-27T01:40:46;101657.50;;;10.65;49.91
18784;BME280;9520;50.954;6.968;2023-01-27T01:41:12;101677.75;;;10.84;49.87
18784;BME280;9520;50.954;6.968;2023-01-27T01:41:37;101632.88;;;10.58;49.69
18784;BME280;9520;50.954;6.968;2023-01-27T01:42:03;101553.75;;;10.16;49.66
18784;BME280;9520;50.954;6.968;2023-01-27T01:42:52;101596.84;;;10.50;49.72
18784;BME280;9520;50.954;6.968;2023-01-27T01:43:15;101687.38;;;10.96;49.54
18784;BME280;9520;50.954;6.968;2023-01-27T01:43:37;101684.78;;;10.94;49.59
18784;BME280;9520;50.954;6.968;2023-01-27T01:44:18;101693.56;;;10.95;49.59
18784;BME280;9520;50.954;6.968;2023-01-27T01:44:42;101657.50;;;10.77;49.61
18784;BME280;9520;50.954;6.968;2023-01-27T01:45:44;101689.16;;;10.94;49.44
18784;BME280;9520;50.954;6.968;2023-01-27T01:46:07;101695.34;;;10.94;49.52
18784;BME280;9520;50.954;6.968;2023-01-27T01:46:33;101577.50;;;10.35;49.79
18784;BME280;9520;50.954;6.968;2023-01-27T01:46:56;101681.25;;;10.83;49.61
18784;BME280;9520;50.954;6.968;2023-01-27T01:47:18;101568.69;;;10.18;49.63
18784;BME280;9520;50.954;6.968;2023-01-27T01:47:43;101605.59;;;10.24;49.62
18784;BME280;9520;50.954;6.968;2023-01-27T01:48:07;101686.53;;;10.72;49.69
18784;BME280;9520;50.954;6.968;2023-01-27T01:48:34;101636.38;;;10.51;49.71
18784;BME280;9520;50.954;6.968;2023-01-27T01:48:59;101568.66;;;10.17;49.56
18784;BME280;9520;50.954;6.968;2023-01-27T01:49:26;101681.25;;;10.80;49.38
18784;BME280;9520;50.954;6.968;2023-01-27T01:49:50;101684.78;;;10.88;49.77
18784;BME280;9520;50.954;6.968;2023-01-27T01:50:12;101690.03;;;10.93;49.43
18784;BME280;9520;50.954;6.968;2023-01-27T01:50:36;101688.28;;;10.95;49.35
18784;BME280;9520;50.954;6.968;2023-01-27T01:51:06;101556.38;;;10.23;49.29
18784;BME280;9520;50.954;6.968;2023-01-27T01:51:33;101670.69;;;10.86;49.21
18784;BME280;9520;50.954;6.968;2023-01-27T01:51:57;101686.50;;;10.97;49.27
18784;BME280;9520;50.954;6.968;2023-01-27T01:52:22;101633.75;;;10.62;49.35
18784;BME280;9520;50.954;6.968;2023-01-27T01:52:44;101683.03;;;10.90;48.99
18784;BME280;9520;50.954;6.968;2023-01-27T01:53:08;101683.00;;;10.89;49.24
18784;BME280;9520;50.954;6.968;2023-01-27T01:53:37;101579.25;;;10.30;49.09
18784;BME280;9520;50.954;6.968;2023-01-27T01:54:07;101674.19;;;10.87;49.29
18784;BME280;9520;50.954;6.968;2023-01-27T01:54:32;101555.50;;;10.18;49.35
18784;BME280;9520;50.954;6.968;2023-01-27T01:54:56;101659.28;;;10.70;49.51
18784;BME280;9520;50.954;6.968;2023-01-27T01:55:21;101587.16;;;10.39;49.61
18784;BME280;9520;50.954;6.968;2023-01-27T01:55:45;101610.88;;;10.53;49.49
18784;BME280;9520;50.954;6.968;2023-01-27T01:56:13;101661.91;;;10.82;49.40
18784;BME280;9520;50.954;6.968;2023-01-27T01:56:41;101678.59;;;10.91;49.51
18784;BME280;9520;50.954;6.968;2023-01-27T01:57:08;101538.78;;;10.06;49.32
18784;BME280;9520;50.954;6.968;2023-01-27T01:57:33;101634.63;;;10.33;49.52
18784;BME280;9520;50.954;6.968;2023-01-27T01:57:59;101655.72;;;10.49;49.47
18784;BME280;9520;50.954;6.968;2023-01-27T01:58:28;101675.94;;;10.71;49.43
18784;BME280;9520;50.954;6.968;2023-01-27T01:58:55;101675.97;;;10.74;49.28
18784;BME280;9520;50.954;6.968;2023-01-27T01:59:22;101520.28;;;9.87;49.25
18784;BME280;9520;50.954;6.968;2023-01-27T01:59:51;101572.19;;;10.17;49.11
18784;BME280;9520;50.954;6.968;2023-01-27T02:00:15;101675.97;;;10.81;49.07
18784;BME280;9520;50.954;6.968;2023-01-27T02:00:41;101579.25;;;10.24;48.72
18784;BME280;9520;50.954;6.968;2023-01-27T02:01:08;101560.78;;;10.27;48.89
18784;BME280;9520;50.954;6.968;2023-01-27T02:01:39;101576.59;;;10.32;48.97
18784;BME280;9520;50.954;6.968;2023-01-27T02:02:12;101637.25;;;10.61;49.06
18784;BME280;9520;50.954;6.968;2023-01-27T02:02:36;101607.38;;;10.53;49.12
18784;BME280;9520;50.954;6.968;2023-01-27T02:03:05;101691.81;;;10.94;48.84
18784;BME280;9520;50.954;6.968;2023-01-27T02:03:29;101549.31;;;10.15;48.87
18784;BME280;9520;50.954;6.968;2023-01-27T02:03:55;101690.94;;;10.95;48.83
18784;BME280;9520;50.954;6.968;2023-01-27T02:04:20;101680.34;;;10.92;48.98
18784;BME280;9520;50.954;6.968;2023-01-27T02:04:48;101661.88;;;10.87;48.77
18784;BME280;9520;50.954;6.968;2023-01-27T02:05:14;101646.06;;;10.72;48.68
18784;BME280;9520;50.954;6.968;2023-01-27T02:05:40;101631.09;;;10.53;49.09
18784;BME280;9520;50.954;6.968;2023-01-27T02:06:05;101567.81;;;10.19;49.01
18784;BME280;9520;50.954;6.968;2023-01-27T02:06:30;101565.13;;;10.12;49.02
18784;BME280;9520;50.954;6.968;2023-01-27T02:07:00;101623.19;;;10.51;48.77
18784;BME280;9520;50.954;6.968;2023-01-27T02:07:28;101675.97;;;10.83;48.94
18784;BME280;9520;50.954;6.968;2023-01-27T02:07:56;101677.72;;;10.76;48.91
18784;BME280;9520;50.954;6.968;2023-01-27T02:08:22;101639.03;;;10.48;48.89
18784;BME280;9520;50.954;6.968;2023-01-27T02:08:48;101670.69;;;10.63;49.05
18784;BME280;9520;50.954;6.968;2023-01-27T02:09:11;101654.84;;;10.53;48.97
18784;BME280;9520;50.954;6.968;2023-01-27T02:09:37;101669.78;;;10.61;49.01
18784;BME280;9520;50.954;6.968;2023-01-27T02:10:00;101675.97;;;10.59;48.96
18784;BME280;9520;50.954;6.968;2023-01-27T02:10:24;101670.69;;;10.62;48.93
18784;BME280;9520;50.954;6.968;2023-01-27T02:10:46;101657.50;;;10.60;48.86
18784;BME280;9520;50.954;6.968;2023-01-27T02:11:10;101682.13;;;10.74;48.93
18784;BME280;9520;50.954;6.968;2023-01-27T02:11:32;101537.00;;;9.94;48.94
18784;BME280;9520;50.954;6.968;2023-01-27T02:11:55;101674.22;;;10.77;48.90
18784;BME280;9520;50.954;6.968;2023-01-27T02:12:18;101666.31;;;10.70;48.99
18784;BME280;9520;50.954;6.968;2023-01-27T02:12:42;101678.59;;;10.83;48.88
18784;BME280;9520;50.954;6.968;2023-01-27T02:13:04;101608.25;;;10.41;48.85